Time;durP1;ratioP1;P1;durP2;ratioP2;P2;SDS_P1;SDS_P2;PMS_P1;PMS_P2;Temp;Humidity;BMP_temperature;BMP_pressure;BME280_temperature;BME280_humidity;BME280_pressure;Samples;Min_cycle;Max_cycle;Signal;HPM_P1;HPM_P2
2022/10/19 00:02:11;;;;;;;1.52;1.42;;;;;;;;;;5053268;28;20099;-85
2022/10/19 00:04:38;;;;;;;0.70;0.65;;;;;;;;;;5052658;28;20133;-84
2022/10/19 00:07:04;;;;;;;1.13;0.75;;;;;;;;;;5053963;28;20049;-84
2022/10/19 00:09:30;;;;;;;1.33;1.23;;;;;;;;;;5053375;28;20048;-84
2022/10/19 00:11:57;;;;;;;1.08;0.82;;;;;;;;;;5053275;28;20052;-83
2022/10/19 00:14:24;;;;;;;3.15;1.80;;;;;;;;;;5053233;28;20045;-84
2022/10/19 00:16:51;;;;;;;1.35;1.25;;;;;;;;;;5052957;28;20110;-84
2022/10/19 00:19:20;;;;;;;1.58;0.98;;;;;;;;;;5053081;28;20050;-84
2022/10/19 00:21:47;;;;;;;0.68;0.68;;;;;;;;;;5053280;28;20060;-84
2022/10/19 00:24:13;;;;;;;1.55;1.42;;;;;;;;;;5053237;28;20049;-84
2022/10/19 00:26:40;;;;;;;1.63;1.33;;;;;;;;;;5055804;28;20130;-83
2022/10/19 00:29:07;;;;;;;1.10;1.08;;;;;;;;;;5052868;28;20119;-84
2022/10/19 00:31:33;;;;;;;1.88;1.77;;;;;;;;;;5052721;28;20053;-84
2022/10/19 00:34:00;;;;;;;1.02;1.00;;;;;;;;;;5053099;28;20056;-84
2022/10/19 00:36:29;;;;;;;0.45;0.45;;;;;;;;;;5052920;28;20052;-84
2022/10/19 00:38:56;;;;;;;0.30;0.28;;;;;;;;;;5052674;28;20098;-84
2022/10/19 00:41:23;;;;;;;1.27;1.17;;;;;;;;;;5052702;28;20045;-84
2022/10/19 00:43:51;;;;;;;0.50;0.45;;;;;;;;;;5053254;28;20106;-84
2022/10/19 00:46:17;;;;;;;0.65;0.35;;;;;;;;;;5052412;28;20053;-84
2022/10/19 00:48:44;;;;;;;1.27;1.13;;;;;;;;;;5052815;28;20056;-84
2022/10/19 00:51:10;;;;;;;0.80;0.80;;;;;;;;;;5052503;28;20079;-84
2022/10/19 00:53:38;;;;;;;1.50;1.40;;;;;;;;;;5052535;28;20122;-84
2022/10/19 00:56:07;;;;;;;0.40;0.28;;;;;;;;;;5052765;28;20071;-84
2022/10/19 00:58:34;;;;;;;1.10;1.10;;;;;;;;;;5052443;28;20500;-84
2022/10/19 01:01:02;;;;;;;2.15;2.05;;;;;;;;;;5055797;28;20094;-84
2022/10/19 01:03:29;;;;;;;3.55;1.08;;;;;;;;;;5072255;28;20053;-84
2022/10/19 01:05:55;;;;;;;1.02;0.82;;;;;;;;;;5072105;28;20109;-84
2022/10/19 01:08:23;;;;;;;1.35;1.25;;;;;;;;;;5071930;28;20617;-84
2022/10/19 01:10:52;;;;;;;1.55;1.45;;;;;;;;;;5072127;28;20048;-84
2022/10/19 01:13:25;;;;;;;0.90;0.80;;;;;;;;;;5072003;28;20052;-84
2022/10/19 01:15:55;;;;;;;0.80;0.80;;;;;;;;;;5071294;28;20109;-84
2022/10/19 01:18:25;;;;;;;1.30;0.85;;;;;;;;;;5066818;28;20060;-84
2022/10/19 01:21:12;;;;;;;0.47;0.40;;;;;;;;;;5071978;28;20557;-84
2022/10/19 01:23:59;;;;;;;2.50;2.40;;;;;;;;;;5071760;28;20484;-84
2022/10/19 01:26:35;;;;;;;0.65;0.65;;;;;;;;;;5045999;28;20106;-84
2022/10/19 01:29:08;;;;;;;1.00;0.80;;;;;;;;;;5071968;28;20474;-84
2022/10/19 01:31:38;;;;;;;1.65;1.55;;;;;;;;;;5071771;28;20061;-84
2022/10/19 01:34:07;;;;;;;0.63;0.60;;;;;;;;;;5071642;28;20052;-84
2022/10/19 01:36:39;;;;;;;1.95;1.77;;;;;;;;;;5058350;28;20068;-83
2022/10/19 01:39:08;;;;;;;1.55;1.45;;;;;;;;;;5067185;28;20052;-83
2022/10/19 01:41:41;;;;;;;1.40;0.98;;;;;;;;;;5071768;28;20049;-84
2022/10/19 01:44:11;;;;;;;0.60;0.57;;;;;;;;;;5071321;28;20590;-84
2022/10/19 01:46:40;;;;;;;0.63;0.63;;;;;;;;;;5071604;28;20101;-84
2022/10/19 01:49:09;;;;;;;0.50;0.50;;;;;;;;;;5071399;28;20048;-84
2022/10/19 01:51:38;;;;;;;1.55;1.45;;;;;;;;;;5071446;28;20056;-84
2022/10/19 01:54:06;;;;;;;0.80;0.63;;;;;;;;;;5057527;28;20540;-83
2022/10/19 01:56:34;;;;;;;0.73;0.73;;;;;;;;;;5051766;28;20463;-83
2022/10/19 01:59:01;;;;;;;1.15;0.95;;;;;;;;;;5051531;28;20115;-83
2022/10/19 02:01:30;;;;;;;1.00;0.98;;;;;;;;;;5051519;28;20053;-83
2022/10/19 02:04:00;;;;;;;0.57;0.57;;;;;;;;;;5051407;28;20076;-84
2022/10/19 02:06:26;;;;;;;0.88;0.88;;;;;;;;;;5051434;28;20052;-83
2022/10/19 02:08:53;;;;;;;0.82;0.65;;;;;;;;;;5052312;28;20516;-83
2022/10/19 02:11:21;;;;;;;1.02;0.43;;;;;;;;;;5071234;28;20492;-84
2022/10/19 02:13:49;;;;;;;0.20;0.10;;;;;;;;;;5071201;28;20545;-83
2022/10/19 02:16:19;;;;;;;0.40;0.38;;;;;;;;;;5071444;28;20102;-83
2022/10/19 02:18:47;;;;;;;1.30;1.20;;;;;;;;;;5070791;28;20500;-83
2022/10/19 02:21:15;;;;;;;1.52;0.85;;;;;;;;;;5071408;28;20634;-83
2022/10/19 02:23:41;;;;;;;0.45;0.38;;;;;;;;;;5071175;28;20048;-83
2022/10/19 02:26:08;;;;;;;0.80;0.57;;;;;;;;;;5069223;28;20092;-83
2022/10/19 02:28:35;;;;;;;3.00;0.90;;;;;;;;;;5055840;28;20404;-83
2022/10/19 02:31:01;;;;;;;0.93;0.93;;;;;;;;;;5055098;28;20045;-83
2022/10/19 02:33:28;;;;;;;1.85;1.08;;;;;;;;;;5055185;28;20452;-83
2022/10/19 02:35:55;;;;;;;1.05;0.95;;;;;;;;;;5055091;28;20761;-83
2022/10/19 02:38:24;;;;;;;1.25;1.15;;;;;;;;;;5055272;28;20049;-83
2022/10/19 02:40:54;;;;;;;0.50;0.43;;;;;;;;;;5054765;28;20444;-83
2022/10/19 02:43:23;;;;;;;0.25;0.20;;;;;;;;;;5054852;28;20099;-83
2022/10/19 02:45:51;;;;;;;0.43;0.30;;;;;;;;;;5070980;28;20053;-83
2022/10/19 02:48:19;;;;;;;2.45;1.98;;;;;;;;;;5074699;28;20044;-83
2022/10/19 02:50:47;;;;;;;0.90;0.75;;;;;;;;;;5074711;28;20509;-83
2022/10/19 02:53:14;;;;;;;0.68;0.68;;;;;;;;;;5074431;28;20050;-83
2022/10/19 02:55:42;;;;;;;1.67;1.27;;;;;;;;;;5074578;28;20044;-83
2022/10/19 02:58:09;;;;;;;0.68;0.68;;;;;;;;;;5074767;28;20074;-83
2022/10/19 03:00:35;;;;;;;0.52;0.45;;;;;;;;;;5072408;28;20135;-83
2022/10/19 03:03:02;;;;;;;1.35;1.13;;;;;;;;;;5070392;28;20117;-83
2022/10/19 03:05:28;;;;;;;0.38;0.38;;;;;;;;;;5054639;28;20048;-83
2022/10/19 03:07:55;;;;;;;0.35;0.32;;;;;;;;;;5054524;28;20049;-83
2022/10/19 03:10:21;;;;;;;0.38;0.22;;;;;;;;;;5054307;28;20044;-83
2022/10/19 03:12:49;;;;;;;2.00;1.90;;;;;;;;;;5054400;28;20080;-83
2022/10/19 03:15:16;;;;;;;0.55;0.55;;;;;;;;;;5054562;28;20098;-83
2022/10/19 03:17:43;;;;;;;0.82;0.80;;;;;;;;;;5057101;28;20094;-83
2022/10/19 03:20:10;;;;;;;1.52;1.42;;;;;;;;;;5055571;28;20114;-83
2022/10/19 03:22:37;;;;;;;0.88;0.88;;;;;;;;;;5054358;28;20108;-84
2022/10/19 03:25:03;;;;;;;0.40;0.30;;;;;;;;;;5054069;28;20118;-83
2022/10/19 03:27:30;;;;;;;0.60;0.60;;;;;;;;;;5054068;28;20496;-83
2022/10/19 03:29:58;;;;;;;2.33;2.08;;;;;;;;;;5054243;28;20102;-83
2022/10/19 03:32:24;;;;;;;0.45;0.30;;;;;;;;;;5053849;28;20558;-83
2022/10/19 03:34:51;;;;;;;0.60;0.52;;;;;;;;;;5057059;28;20105;-83
2022/10/19 03:37:17;;;;;;;2.10;1.95;;;;;;;;;;5054094;28;20443;-83
2022/10/19 03:39:44;;;;;;;1.17;1.10;;;;;;;;;;5052566;28;20103;-83
2022/10/19 03:42:10;;;;;;;0.82;0.82;;;;;;;;;;5053883;28;20056;-83
2022/10/19 03:44:36;;;;;;;0.77;0.77;;;;;;;;;;5054052;28;20052;-83
2022/10/19 03:47:04;;;;;;;1.05;0.82;;;;;;;;;;5053835;28;20050;-83
2022/10/19 03:49:31;;;;;;;0.35;0.17;;;;;;;;;;5057978;28;20053;-83
2022/10/19 03:51:57;;;;;;;1.45;1.38;;;;;;;;;;5053754;28;20049;-84
2022/10/19 03:54:24;;;;;;;0.38;0.28;;;;;;;;;;5066393;28;20044;-84
2022/10/19 03:56:50;;;;;;;0.90;0.90;;;;;;;;;;5073725;28;20094;-83
2022/10/19 03:59:17;;;;;;;0.30;0.10;;;;;;;;;;5073316;28;20094;-83
2022/10/19 04:01:44;;;;;;;3.40;1.33;;;;;;;;;;5073595;28;20048;-83
2022/10/19 04:04:13;;;;;;;0.75;0.35;;;;;;;;;;5073123;28;20036;-84
2022/10/19 04:06:41;;;;;;;0.63;0.43;;;;;;;;;;5073446;28;20113;-83
2022/10/19 04:09:08;;;;;;;0.88;0.85;;;;;;;;;;5072181;28;20044;-83
2022/10/19 04:11:35;;;;;;;2.85;2.75;;;;;;;;;;5069176;28;20052;-83
2022/10/19 04:14:01;;;;;;;0.50;0.47;;;;;;;;;;5072981;28;20086;-83
2022/10/19 04:16:29;;;;;;;0.50;0.50;;;;;;;;;;5072991;28;20082;-83
2022/10/19 04:18:56;;;;;;;0.73;0.73;;;;;;;;;;5072956;28;20103;-83
2022/10/19 04:21:24;;;;;;;1.58;1.48;;;;;;;;;;5072564;28;20057;-83
2022/10/19 04:23:52;;;;;;;0.52;0.50;;;;;;;;;;5068877;28;20041;-83
2022/10/19 04:26:19;;;;;;;0.93;0.93;;;;;;;;;;5053082;28;20049;-83
2022/10/19 04:28:45;;;;;;;0.85;0.85;;;;;;;;;;5056005;28;20105;-83
2022/10/19 04:31:12;;;;;;;0.85;0.52;;;;;;;;;;5053001;28;20045;-83
2022/10/19 04:33:38;;;;;;;0.82;0.82;;;;;;;;;;5052916;28;20049;-83
2022/10/19 04:36:06;;;;;;;0.40;0.30;;;;;;;;;;5052824;28;20122;-84
2022/10/19 04:38:34;;;;;;;0.28;0.15;;;;;;;;;;5052797;28;20562;-83
2022/10/19 04:41:02;;;;;;;6.13;0.90;;;;;;;;;;5052556;28;20049;-83
2022/10/19 04:43:28;;;;;;;0.82;0.80;;;;;;;;;;5052857;28;20132;-83
2022/10/19 04:45:54;;;;;;;1.45;1.35;;;;;;;;;;5057629;28;20053;-83
2022/10/19 04:48:22;;;;;;;0.45;0.22;;;;;;;;;;5072356;28;20048;-83
2022/10/19 04:50:48;;;;;;;2.28;2.05;;;;;;;;;;5071973;28;20045;-83
2022/10/19 04:53:15;;;;;;;1.13;0.93;;;;;;;;;;5072358;28;20052;-83
2022/10/19 04:55:42;;;;;;;1.08;0.98;;;;;;;;;;5072098;28;20044;-83
2022/10/19 04:58:09;;;;;;;1.75;1.65;;;;;;;;;;5072396;28;20052;-83
2022/10/19 05:00:37;;;;;;;2.08;1.92;;;;;;;;;;5071952;28;20045;-82
2022/10/19 05:03:04;;;;;;;12.18;1.52;;;;;;;;;;5060249;28;20053;-82
2022/10/19 05:05:31;;;;;;;0.88;0.63;;;;;;;;;;5052299;28;20053;-83
2022/10/19 05:07:57;;;;;;;1.58;1.27;;;;;;;;;;5052245;28;20102;-82
2022/10/19 05:10:24;;;;;;;3.05;2.10;;;;;;;;;;5052322;28;20110;-83
2022/10/19 05:12:52;;;;;;;2.72;2.55;;;;;;;;;;5052213;28;20061;-83
2022/10/19 05:15:18;;;;;;;0.98;0.73;;;;;;;;;;5052103;28;20048;-83
2022/10/19 05:17:45;;;;;;;1.77;0.88;;;;;;;;;;5052602;28;20057;-82
2022/10/19 05:20:11;;;;;;;1.27;1.17;;;;;;;;;;5070894;28;20086;-83
2022/10/19 05:22:38;;;;;;;1.05;0.95;;;;;;;;;;5071625;28;20106;-83
2022/10/19 05:25:05;;;;;;;1.13;0.90;;;;;;;;;;5067719;28;20048;-83
2022/10/19 05:27:32;;;;;;;1.00;1.00;;;;;;;;;;5071909;28;20455;-83
2022/10/19 05:29:59;;;;;;;1.30;0.85;;;;;;;;;;5071450;28;20101;-83
2022/10/19 05:32:27;;;;;;;1.15;1.05;;;;;;;;;;5071573;28;20053;-83
2022/10/19 05:34:53;;;;;;;2.08;1.90;;;;;;;;;;5063700;28;20106;-83
2022/10/19 05:37:20;;;;;;;1.13;1.02;;;;;;;;;;5051819;28;20492;-82
2022/10/19 05:39:46;;;;;;;3.03;2.05;;;;;;;;;;5058855;28;20098;-82
2022/10/19 05:42:13;;;;;;;3.75;1.13;;;;;;;;;;5071620;28;20074;-82
2022/10/19 05:44:39;;;;;;;1.40;1.30;;;;;;;;;;5071508;28;20052;-83
2022/10/19 05:47:07;;;;;;;1.65;0.75;;;;;;;;;;5071359;28;20052;-84
2022/10/19 05:49:34;;;;;;;0.55;0.55;;;;;;;;;;5070482;28;20117;-83
2022/10/19 05:52:00;;;;;;;2.03;1.92;;;;;;;;;;5066888;28;20116;-83
2022/10/19 05:54:27;;;;;;;0.50;0.30;;;;;;;;;;5071013;28;20381;-83
2022/10/19 05:56:53;;;;;;;0.50;0.30;;;;;;;;;;5069228;28;20102;-83
2022/10/19 05:59:21;;;;;;;0.88;0.88;;;;;;;;;;5062530;28;20048;-83
2022/10/19 06:01:47;;;;;;;2.90;2.40;;;;;;;;;;5050882;28;20053;-84
2022/10/19 06:04:15;;;;;;;0.45;0.15;;;;;;;;;;5072173;28;20113;-83
2022/10/19 06:06:42;;;;;;;1.80;1.67;;;;;;;;;;5054662;28;20398;-84
2022/10/19 06:09:09;;;;;;;2.03;1.75;;;;;;;;;;5049926;28;20102;-84
2022/10/19 06:11:37;;;;;;;1.63;1.52;;;;;;;;;;5057481;28;20089;-84
2022/10/19 06:14:05;;;;;;;0.80;0.68;;;;;;;;;;5054511;28;20064;-84
2022/10/19 06:16:32;;;;;;;2.92;2.63;;;;;;;;;;5054869;28;20053;-84
2022/10/19 06:18:59;;;;;;;1.77;1.42;;;;;;;;;;5054649;28;20562;-84
2022/10/19 06:21:28;;;;;;;0.50;0.35;;;;;;;;;;5055405;28;20431;-84
2022/10/19 06:23:55;;;;;;;3.25;2.20;;;;;;;;;;5057195;28;20053;-84
2022/10/19 06:26:22;;;;;;;1.73;1.23;;;;;;;;;;5072807;28;20048;-84
2022/10/19 06:28:49;;;;;;;0.38;0.38;;;;;;;;;;5070042;28;20045;-84
2022/10/19 06:31:16;;;;;;;1.35;1.25;;;;;;;;;;5073154;28;20041;-85
2022/10/19 06:33:43;;;;;;;2.10;1.75;;;;;;;;;;5074610;28;20466;-85
2022/10/19 06:36:11;;;;;;;2.38;1.60;;;;;;;;;;5058874;28;20057;-84
2022/10/19 06:38:39;;;;;;;1.33;1.02;;;;;;;;;;5066469;28;20105;-84
2022/10/19 06:41:06;;;;;;;1.67;1.58;;;;;;;;;;5055087;28;20052;-84
2022/10/19 06:43:32;;;;;;;3.53;1.83;;;;;;;;;;5054603;28;20099;-85
2022/10/19 06:45:59;;;;;;;1.38;1.27;;;;;;;;;;5056922;28;20049;-85
2022/10/19 06:48:25;;;;;;;1.60;1.50;;;;;;;;;;5054287;28;20450;-85
2022/10/19 06:50:56;;;;;;;3.20;2.92;;;;;;;;;;5054618;28;20171;-84
2022/10/19 06:53:22;;;;;;;1.25;0.82;;;;;;;;;;5054624;28;20496;-84
2022/10/19 06:55:50;;;;;;;1.10;1.10;;;;;;;;;;5057786;28;20105;-85
2022/10/19 06:58:17;;;;;;;1.40;1.35;;;;;;;;;;5065175;28;20052;-84
2022/10/19 07:00:43;;;;;;;0.85;0.75;;;;;;;;;;5073880;28;20060;-85
2022/10/19 07:03:10;;;;;;;2.83;2.63;;;;;;;;;;5056763;28;20106;-86
2022/10/19 07:05:36;;;;;;;0.73;0.73;;;;;;;;;;5054128;28;20115;-86
2022/10/19 07:08:03;;;;;;;2.13;2.03;;;;;;;;;;5056597;28;20438;-85
2022/10/19 07:10:29;;;;;;;1.50;1.40;;;;;;;;;;5065355;28;20562;-86
2022/10/19 07:12:57;;;;;;;1.85;1.75;;;;;;;;;;5053980;28;20041;-86
2022/10/19 07:15:23;;;;;;;2.47;2.28;;;;;;;;;;5071882;28;20044;-86
2022/10/19 07:17:50;;;;;;;2.17;1.98;;;;;;;;;;5073966;28;20177;-85
2022/10/19 07:20:16;;;;;;;1.80;1.70;;;;;;;;;;5073783;28;20562;-85
2022/10/19 07:22:43;;;;;;;0.95;0.93;;;;;;;;;;5052892;28;20139;-86
2022/10/19 07:25:10;;;;;;;2.33;2.13;;;;;;;;;;5057867;28;20041;-85
2022/10/19 07:27:38;;;;;;;1.33;1.23;;;;;;;;;;5056506;28;20102;-86
2022/10/19 07:30:07;;;;;;;0.90;0.90;;;;;;;;;;5054016;28;20051;-87
2022/10/19 07:32:33;;;;;;;0.25;0.22;;;;;;;;;;5053864;28;20045;-86
2022/10/19 07:35:00;;;;;;;2.38;2.28;;;;;;;;;;5054234;28;20109;-87
2022/10/19 07:37:26;;;;;;;1.83;1.73;;;;;;;;;;5053677;28;20558;-86
2022/10/19 07:39:53;;;;;;;1.50;1.40;;;;;;;;;;5056176;28;20044;-87
2022/10/19 07:42:19;;;;;;;2.28;2.15;;;;;;;;;;5073262;28;20048;-87
2022/10/19 07:44:46;;;;;;;1.77;1.67;;;;;;;;;;5068073;28;20048;-87
2022/10/19 07:47:13;;;;;;;1.88;1.77;;;;;;;;;;5054169;28;20099;-87
2022/10/19 07:49:40;;;;;;;1.83;1.70;;;;;;;;;;5053333;28;20045;-87
2022/10/19 07:52:06;;;;;;;1.95;1.85;;;;;;;;;;5062171;28;20040;-86
2022/10/19 07:54:33;;;;;;;4.60;3.35;;;;;;;;;;5051785;28;20049;-87
2022/10/19 07:56:59;;;;;;;2.38;1.48;;;;;;;;;;5071287;28;20110;-87
2022/10/19 07:59:26;;;;;;;1.35;1.25;;;;;;;;;;5073414;28;20091;-86
2022/10/19 08:01:53;;;;;;;2.42;1.95;;;;;;;;;;5072678;28;20053;-86
2022/10/19 08:04:21;;;;;;;1.38;0.77;;;;;;;;;;5072892;28;20484;-87
2022/10/19 08:06:47;;;;;;;2.05;1.95;;;;;;;;;;5072439;28;20121;-87
2022/10/19 08:09:14;;;;;;;1.80;1.70;;;;;;;;;;5071825;28;20103;-86
2022/10/19 08:11:41;;;;;;;2.67;2.25;;;;;;;;;;5071790;28;20109;-86
2022/10/19 08:14:07;;;;;;;1.00;0.98;;;;;;;;;;5052859;28;20103;-86
2022/10/19 08:16:36;;;;;;;1.95;1.70;;;;;;;;;;5052574;28;20462;-86
2022/10/19 08:19:04;;;;;;;1.13;1.02;;;;;;;;;;5052945;28;20072;-86
2022/10/19 08:21:32;;;;;;;3.25;3.05;;;;;;;;;;5052400;28;20052;-86
2022/10/19 08:23:59;;;;;;;1.48;1.23;;;;;;;;;;5069537;28;20078;-86
2022/10/19 08:26:28;;;;;;;1.20;1.10;;;;;;;;;;5060586;28;20052;-86
2022/10/19 08:28:59;;;;;;;2.17;2.08;;;;;;;;;;5052161;28;20099;-86
2022/10/19 08:31:25;;;;;;;2.20;1.88;;;;;;;;;;5052193;28;20091;-86
2022/10/19 08:33:52;;;;;;;2.42;2.25;;;;;;;;;;5052270;28;20052;-86
2022/10/19 08:36:20;;;;;;;1.63;1.40;;;;;;;;;;5052448;28;20099;-86
2022/10/19 08:38:48;;;;;;;1.42;1.08;;;;;;;;;;5051293;28;20052;-86
2022/10/19 08:41:21;;;;;;;1.02;1.02;;;;;;;;;;5052588;28;20049;-86
2022/10/19 08:43:54;;;;;;;2.75;2.03;;;;;;;;;;5052210;28;20048;-86
2022/10/19 08:46:25;;;;;;;2.03;1.92;;;;;;;;;;5055079;28;20102;-86
2022/10/19 08:48:51;;;;;;;2.60;2.40;;;;;;;;;;5059951;28;20079;-86
2022/10/19 08:51:18;;;;;;;2.70;2.45;;;;;;;;;;5051812;28;20049;-86
2022/10/19 08:53:49;;;;;;;1.17;1.10;;;;;;;;;;5051285;28;20053;-86
2022/10/19 08:56:21;;;;;;;1.33;1.25;;;;;;;;;;5052204;28;20053;-85
2022/10/19 08:58:55;;;;;;;4.80;2.30;;;;;;;;;;5052167;28;20045;-86
2022/10/19 09:01:27;;;;;;;2.53;2.33;;;;;;;;;;5055627;28;20086;-85
2022/10/19 09:03:59;;;;;;;6.82;6.50;;;;;;;;;;5061417;28;20113;-86
2022/10/19 09:06:29;;;;;;;1.35;1.25;;;;;;;;;;5062174;28;20110;-86
2022/10/19 09:08:56;;;;;;;1.35;1.20;;;;;;;;;;5050591;28;20045;-86
2022/10/19 09:11:25;;;;;;;1.30;1.20;;;;;;;;;;5051680;28;20056;-86
2022/10/19 09:13:57;;;;;;;4.65;1.92;;;;;;;;;;5053959;28;20057;-86
2022/10/19 09:16:25;;;;;;;2.22;1.98;;;;;;;;;;5071373;28;20048;-85
2022/10/19 09:18:51;;;;;;;2.10;2.00;;;;;;;;;;5071745;28;20048;-85
2022/10/19 09:21:20;;;;;;;2.38;2.28;;;;;;;;;;5071305;28;20553;-85
2022/10/19 09:23:51;;;;;;;3.25;1.77;;;;;;;;;;5070367;28;20056;-86
2022/10/19 09:26:18;;;;;;;2.08;1.98;;;;;;;;;;5071173;28;20044;-85
2022/10/19 09:28:49;;;;;;;3.10;2.80;;;;;;;;;;5071586;28;20443;-85
2022/10/19 09:31:18;;;;;;;2.95;2.67;;;;;;;;;;5064362;28;20053;-85
2022/10/19 09:33:47;;;;;;;3.17;2.45;;;;;;;;;;5051483;28;20060;-85
2022/10/19 09:36:13;;;;;;;3.88;3.00;;;;;;;;;;5050440;28;20049;-85
2022/10/19 09:38:40;;;;;;;2.08;1.98;;;;;;;;;;5051317;28;20053;-86
2022/10/19 09:41:15;;;;;;;4.40;4.18;;;;;;;;;;5051273;28;20045;-86
2022/10/19 09:43:43;;;;;;;4.32;3.05;;;;;;;;;;5051093;28;20103;-86
2022/10/19 09:46:14;;;;;;;3.78;3.47;;;;;;;;;;5051151;28;20049;-86
2022/10/19 09:48:40;;;;;;;;;;;;;;;;;;5051220;28;20041;-86
2022/10/19 09:51:11;;;;;;;3.40;2.25;;;;;;;;;;5050782;28;19974;-85
2022/10/19 09:53:37;;;;;;;3.20;2.88;;;;;;;;;;5050242;28;20049;-86
2022/10/19 09:56:05;;;;;;;2.47;2.33;;;;;;;;;;5066068;28;20432;-85
2022/10/19 09:58:32;;;;;;;3.42;3.20;;;;;;;;;;5070735;28;20142;-85
2022/10/19 10:00:59;;;;;;;2.55;1.98;;;;;;;;;;5067974;28;20057;-86
2022/10/19 10:03:28;;;;;;;3.85;3.53;;;;;;;;;;5050950;28;20053;-86
2022/10/19 10:05:56;;;;;;;3.53;3.30;;;;;;;;;;5050482;28;20045;-86
2022/10/19 10:08:25;;;;;;;3.17;2.97;;;;;;;;;;5049987;28;20045;-86
2022/10/19 10:10:57;;;;;;;3.35;3.05;;;;;;;;;;5050748;28;20053;-86
2022/10/19 10:13:24;;;;;;;2.50;2.30;;;;;;;;;;5051112;28;20052;-86
2022/10/19 10:15:54;;;;;;;4.97;4.57;;;;;;;;;;5050412;28;20053;-86
2022/10/19 10:18:23;;;;;;;3.67;3.30;;;;;;;;;;5056090;28;20057;-87
2022/10/19 10:20:58;;;;;;;3.45;3.25;;;;;;;;;;5052233;28;20114;-86
2022/10/19 10:23:26;;;;;;;2.50;2.35;;;;;;;;;;5050244;28;20057;-86
2022/10/19 10:25:54;;;;;;;6.90;4.38;;;;;;;;;;5050618;28;20110;-87
2022/10/19 10:28:22;;;;;;;3.90;3.60;;;;;;;;;;5050707;28;20045;-86
2022/10/19 10:30:52;;;;;;;4.35;3.95;;;;;;;;;;5050583;28;20443;-86
2022/10/19 10:33:19;;;;;;;;;;;;;;;;;;5051359;28;20057;-86
2022/10/19 10:35:48;;;;;;;3.72;3.25;;;;;;;;;;5050336;28;20383;-86
2022/10/19 10:38:18;;;;;;;3.80;2.97;;;;;;;;;;5049969;28;20053;-85
2022/10/19 10:40:50;;;;;;;4.13;2.75;;;;;;;;;;5050347;28;20106;-85
2022/10/19 10:43:18;;;;;;;7.93;2.83;;;;;;;;;;5050754;28;20049;-86
2022/10/19 10:45:46;;;;;;;5.10;3.45;;;;;;;;;;5050590;28;20061;-86
2022/10/19 10:48:20;;;;;;;4.32;4.03;;;;;;;;;;5052298;28;20048;-86
2022/10/19 10:50:47;;;;;;;3.65;3.35;;;;;;;;;;5054255;28;20462;-86
2022/10/19 10:53:28;;;;;;;4.22;3.58;;;;;;;;;;5054087;28;20167;-86
2022/10/19 10:55:56;;;;;;;3.42;3.13;;;;;;;;;;5052502;28;20056;-86
2022/10/19 10:58:30;;;;;;;3.15;2.88;;;;;;;;;;5062371;28;20044;-87
2022/10/19 11:00:58;;;;;;;3.13;2.83;;;;;;;;;;5073876;28;20135;-86
2022/10/19 11:03:27;;;;;;;8.15;5.43;;;;;;;;;;5074103;28;20137;-86
2022/10/19 11:05:55;;;;;;;5.22;4.18;;;;;;;;;;5073847;28;20057;-86
2022/10/19 11:08:23;;;;;;;3.30;3.00;;;;;;;;;;5067426;28;20048;-85
2022/10/19 11:10:53;;;;;;;2.92;2.83;;;;;;;;;;5061289;28;20049;-85
2022/10/19 11:13:20;;;;;;;;;;;;;;;;;;5054133;28;20460;-85
2022/10/19 11:15:52;;;;;;;3.97;3.58;;;;;;;;;;5054077;28;19990;-83
2022/10/19 11:18:21;;;;;;;2.95;2.65;;;;;;;;;;5053647;28;20102;-83
2022/10/19 11:20:53;;;;;;;4.05;3.65;;;;;;;;;;5053047;28;20049;-83
2022/10/19 11:23:22;;;;;;;5.32;5.00;;;;;;;;;;5053780;28;20110;-83
2022/10/19 11:25:54;;;;;;;5.90;5.40;;;;;;;;;;5053461;28;20045;-84
2022/10/19 11:28:35;;;;;;;5.43;4.95;;;;;;;;;;5053830;28;20045;-83
2022/10/19 11:31:07;;;;;;;5.25;4.75;;;;;;;;;;5060727;28;20056;-83
2022/10/19 11:33:39;;;;;;;3.85;3.55;;;;;;;;;;5056517;28;20053;-84
2022/10/19 11:36:11;;;;;;;3.95;3.65;;;;;;;;;;5054588;28;20111;-83
2022/10/19 11:38:43;;;;;;;7.07;6.50;;;;;;;;;;5053249;28;20594;-83
2022/10/19 11:41:16;;;;;;;3.88;3.50;;;;;;;;;;5053465;28;20394;-83
2022/10/19 11:43:48;;;;;;;4.95;4.55;;;;;;;;;;5053467;28;20103;-83
2022/10/19 11:46:20;;;;;;;3.92;3.63;;;;;;;;;;5063783;28;20178;-83
2022/10/19 11:49:05;;;;;;;3.42;3.15;;;;;;;;;;5069536;28;20106;-83
2022/10/19 11:51:34;;;;;;;4.93;3.95;;;;;;;;;;5071636;28;20114;-83
2022/10/19 11:54:09;;;;;;;5.32;4.60;;;;;;;;;;5072950;28;20052;-83
2022/10/19 11:56:39;;;;;;;3.42;3.13;;;;;;;;;;5071808;28;20049;-85
2022/10/19 11:59:11;;;;;;;4.43;4.13;;;;;;;;;;5070471;28;20051;-85
2022/10/19 12:01:47;;;;;;;4.50;4.10;;;;;;;;;;5071030;28;20048;-85
2022/10/19 12:04:21;;;;;;;6.10;4.47;;;;;;;;;;5052240;28;20053;-85
2022/10/19 12:06:53;;;;;;;6.50;5.90;;;;;;;;;;5051828;28;20053;-85
2022/10/19 12:09:26;;;;;;;3.97;3.78;;;;;;;;;;5052961;28;20110;-85
2022/10/19 12:12:01;;;;;;;4.40;3.63;;;;;;;;;;5052663;28;20057;-85
2022/10/19 12:14:30;;;;;;;3.75;3.42;;;;;;;;;;5052717;28;20052;-85
2022/10/19 12:17:01;;;;;;;5.13;4.68;;;;;;;;;;5051807;28;20040;-85
2022/10/19 12:19:30;;;;;;;4.22;4.00;;;;;;;;;;5063420;28;20037;-85
2022/10/19 12:21:59;;;;;;;4.93;4.05;;;;;;;;;;5052830;28;20095;-85
2022/10/19 12:24:29;;;;;;;4.38;3.97;;;;;;;;;;5052057;28;20053;-85
2022/10/19 12:26:57;;;;;;;6.28;4.95;;;;;;;;;;5052377;28;20122;-85
2022/10/19 12:29:25;;;;;;;3.05;2.83;;;;;;;;;;5052107;28;20504;-85
2022/10/19 12:31:52;;;;;;;6.57;5.97;;;;;;;;;;5051960;28;20107;-85
2022/10/19 12:34:25;;;;;;;4.60;4.30;;;;;;;;;;5052384;28;20041;-85
2022/10/19 12:36:55;;;;;;;6.53;6.13;;;;;;;;;;5051013;28;20471;-85
2022/10/19 12:39:25;;;;;;;5.72;4.70;;;;;;;;;;5056363;28;20114;-85
2022/10/19 12:41:53;;;;;;;7.28;4.80;;;;;;;;;;5070967;28;20059;-85
2022/10/19 12:44:24;;;;;;;5.63;3.70;;;;;;;;;;5065526;28;20098;-86
2022/10/19 12:46:52;;;;;;;5.97;5.38;;;;;;;;;;5068348;28;20511;-85
2022/10/19 12:49:37;;;;;;;4.47;4.07;;;;;;;;;;5051717;28;20107;-85
2022/10/19 12:52:06;;;;;;;4.97;4.63;;;;;;;;;;5051384;28;20416;-86
2022/10/19 12:54:34;;;;;;;5.10;4.75;;;;;;;;;;5052056;28;20394;-86
2022/10/19 12:57:02;;;;;;;6.65;6.20;;;;;;;;;;5052281;28;20121;-83
2022/10/19 12:59:30;;;;;;;3.97;3.70;;;;;;;;;;5062418;28;20040;-84
2022/10/19 13:01:56;;;;;;;6.28;3.05;;;;;;;;;;5067033;28;20102;-84
2022/10/19 13:04:24;;;;;;;3.95;3.67;;;;;;;;;;5071607;28;20393;-84
2022/10/19 13:07:00;;;;;;;4.90;4.53;;;;;;;;;;5071449;28;20102;-83
2022/10/19 13:09:29;;;;;;;6.45;5.97;;;;;;;;;;5071503;28;20048;-83
2022/10/19 13:12:11;;;;;;;4.63;3.33;;;;;;;;;;5062126;28;20044;-83
2022/10/19 13:14:44;;;;;;;4.60;4.25;;;;;;;;;;5046855;28;20091;-85
2022/10/19 13:17:31;;;;;;;3.33;2.88;;;;;;;;;;5051387;28;20045;-84
2022/10/19 13:20:12;;;;;;;4.70;3.20;;;;;;;;;;5050878;28;20063;-83
2022/10/19 13:22:40;;;;;;;5.05;4.55;;;;;;;;;;5062738;28;20056;-84
2022/10/19 13:25:25;;;;;;;4.78;4.38;;;;;;;;;;5051219;28;20451;-84
2022/10/19 13:27:52;;;;;;;5.60;5.30;;;;;;;;;;5051219;28;20041;-84
2022/10/19 13:30:38;;;;;;;4.47;3.25;;;;;;;;;;5051049;28;20103;-84
2022/10/19 13:33:19;;;;;;;4.15;3.83;;;;;;;;;;5051791;28;20140;-84
2022/10/19 13:35:45;;;;;;;3.45;3.25;;;;;;;;;;5064695;28;20559;-84
2022/10/19 13:38:26;;;;;;;3.67;3.13;;;;;;;;;;5069357;28;20060;-84
2022/10/19 13:40:58;;;;;;;4.72;3.97;;;;;;;;;;5070942;28;20124;-84
2022/10/19 13:43:26;;;;;;;3.42;3.22;;;;;;;;;;5060313;28;20169;-84
2022/10/19 13:45:54;;;;;;;4.50;4.20;;;;;;;;;;5058850;28;20052;-84
2022/10/19 13:48:24;;;;;;;3.35;3.05;;;;;;;;;;5071211;28;20048;-84
2022/10/19 13:50:55;;;;;;;5.55;5.05;;;;;;;;;;5070080;28;20097;-85
2022/10/19 13:53:24;;;;;;;4.97;4.38;;;;;;;;;;5061437;28;20178;-84
2022/10/19 13:56:24;;;;;;;7.15;4.03;;;;;;;;;;5050707;28;20061;-84
2022/10/19 13:59:09;;;;;;;4.20;3.83;;;;;;;;;;5009005;28;20104;-84
2022/10/19 14:01:43;;;;;;;6.18;5.75;;;;;;;;;;5008687;28;20181;-84
2022/10/19 14:04:27;;;;;;;6.00;5.50;;;;;;;;;;5008577;28;20053;-84
2022/10/19 14:06:56;;;;;;;4.10;3.80;;;;;;;;;;5008169;28;20054;-83
2022/10/19 14:09:41;;;;;;;5.15;4.75;;;;;;;;;;5008793;28;20464;-85
2022/10/19 14:12:10;;;;;;;6.15;5.75;;;;;;;;;;5008789;28;20100;-84
2022/10/19 14:14:40;;;;;;;4.97;4.57;;;;;;;;;;5008927;28;20108;-83
2022/10/19 14:17:19;;;;;;;5.45;5.15;;;;;;;;;;5008806;28;20054;-84
2022/10/19 14:19:46;;;;;;;5.53;5.03;;;;;;;;;;5008144;28;20049;-84
2022/10/19 14:22:28;;;;;;;4.93;4.63;;;;;;;;;;5008453;28;20101;-85
2022/10/19 14:25:00;;;;;;;5.97;4.70;;;;;;;;;;5012521;28;20050;-84
2022/10/19 14:27:26;;;;;;;5.25;4.93;;;;;;;;;;5012551;28;20133;-84
2022/10/19 14:29:53;;;;;;;4.47;4.18;;;;;;;;;;5034592;28;20045;-84
2022/10/19 14:32:23;;;;;;;3.35;3.03;;;;;;;;;;5054914;28;20114;-84
2022/10/19 14:34:50;;;;;;;4.93;4.50;;;;;;;;;;5060194;28;20052;-84
2022/10/19 14:37:17;;;;;;;4.10;3.45;;;;;;;;;;5074731;28;20052;-85
2022/10/19 14:39:56;;;;;;;5.90;5.50;;;;;;;;;;5056030;28;20053;-85
2022/10/19 14:42:23;;;;;;;4.55;4.25;;;;;;;;;;5054640;28;20045;-85
2022/10/19 14:44:49;;;;;;;3.83;2.92;;;;;;;;;;5054178;28;20484;-85
2022/10/19 14:47:18;;;;;;;5.50;4.00;;;;;;;;;;5055493;28;20044;-85
2022/10/19 14:49:46;;;;;;;5.95;4.82;;;;;;;;;;5063780;28;20053;-85
2022/10/19 14:52:15;;;;;;;4.13;3.83;;;;;;;;;;5054203;28;20083;-85
2022/10/19 14:54:43;;;;;;;4.13;3.75;;;;;;;;;;5053952;28;20048;-85